sensor_id;sensor_type;location;lat;lon;timestamp;P1;durP1;ratioP1;P2;durP2;ratioP2
9188;SDS011;34313;50.780;6.084;2023-12-20T00:01:31;16.27;;;11.17;;
9188;SDS011;34313;50.780;6.084;2023-12-20T00:03:56;16.40;;;11.80;;
9188;SDS011;34313;50.780;6.084;2023-12-20T00:06:22;13.80;;;10.40;;
9188;SDS011;34313;50.780;6.084;2023-12-20T00:08:47;11.63;;;8.63;;
9188;SDS011;34313;50.780;6.084;2023-12-20T00:11:12;13.10;;;7.27;;
9188;SDS011;34313;50.780;6.084;2023-12-20T00:13:38;10.50;;;6.07;;
9188;SDS011;34313;50.780;6.084;2023-12-20T00:16:03;8.17;;;5.63;;
9188;SDS011;34313;50.780;6.084;2023-12-20T00:18:29;10.40;;;4.77;;
9188;SDS011;34313;50.780;6.084;2023-12-20T00:20:54;9.57;;;4.60;;
9188;SDS011;34313;50.780;6.084;2023-12-20T00:23:20;11.63;;;4.83;;
9188;SDS011;34313;50.780;6.084;2023-12-20T00:25:45;9.80;;;5.57;;
9188;SDS011;34313;50.780;6.084;2023-12-20T00:28:10;11.30;;;6.33;;
9188;SDS011;34313;50.780;6.084;2023-12-20T00:30:36;12.17;;;7.60;;
9188;SDS011;34313;50.780;6.084;2023-12-20T00:33:01;12.73;;;9.07;;
9188;SDS011;34313;50.780;6.084;2023-12-20T00:35:27;16.50;;;9.57;;
9188;SDS011;34313;50.780;6.084;2023-12-20T00:37:52;14.90;;;10.60;;
9188;SDS011;34313;50.780;6.084;2023-12-20T00:40:18;20.63;;;10.77;;
9188;SDS011;34313;50.780;6.084;2023-12-20T00:42:43;16.83;;;10.80;;
9188;SDS011;34313;50.780;6.084;2023-12-20T00:45:08;16.67;;;10.27;;
9188;SDS011;34313;50.780;6.084;2023-12-20T00:47:34;19.60;;;11.53;;
9188;SDS011;34313;50.780;6.084;2023-12-20T00:49:59;13.20;;;9.57;;
9188;SDS011;34313;50.780;6.084;2023-12-20T00:52:25;15.43;;;7.93;;
9188;SDS011;34313;50.780;6.084;2023-12-20T00:54:50;13.53;;;6.33;;
9188;SDS011;34313;50.780;6.084;2023-12-20T00:57:16;17.77;;;6.03;;
9188;SDS011;34313;50.780;6.084;2023-12-20T00:59:41;10.30;;;5.00;;
9188;SDS011;34313;50.780;6.084;2023-12-20T01:02:06;12.80;;;5.50;;
9188;SDS011;34313;50.780;6.084;2023-12-20T01:04:32;19.60;;;5.00;;
9188;SDS011;34313;50.780;6.084;2023-12-20T01:06:57;18.70;;;4.90;;
9188;SDS011;34313;50.780;6.084;2023-12-20T01:09:22;14.63;;;4.77;;
9188;SDS011;34313;50.780;6.084;2023-12-20T01:11:54;21.23;;;4.47;;
9188;SDS011;34313;50.780;6.084;2023-12-20T01:14:19;13.40;;;3.27;;
9188;SDS011;34313;50.780;6.084;2023-12-20T01:16:45;15.60;;;4.57;;
9188;SDS011;34313;50.780;6.084;2023-12-20T01:19:10;8.77;;;3.27;;
9188;SDS011;34313;50.780;6.084;2023-12-20T01:21:36;9.13;;;3.10;;
9188;SDS011;34313;50.780;6.084;2023-12-20T01:24:01;11.57;;;3.13;;
9188;SDS011;34313;50.780;6.084;2023-12-20T01:26:26;9.43;;;3.20;;
9188;SDS011;34313;50.780;6.084;2023-12-20T01:28:52;14.47;;;3.60;;
9188;SDS011;34313;50.780;6.084;2023-12-20T01:31:18;14.70;;;3.43;;
9188;SDS011;34313;50.780;6.084;2023-12-20T01:33:44;11.07;;;3.57;;
9188;SDS011;34313;50.780;6.084;2023-12-20T01:36:09;18.00;;;3.80;;
9188;SDS011;34313;50.780;6.084;2023-12-20T01:38:34;13.00;;;3.90;;
9188;SDS011;34313;50.780;6.084;2023-12-20T01:40:59;10.37;;;3.53;;
9188;SDS011;34313;50.780;6.084;2023-12-20T01:43:25;15.63;;;4.20;;
9188;SDS011;34313;50.780;6.084;2023-12-20T01:45:50;12.10;;;3.50;;
9188;SDS011;34313;50.780;6.084;2023-12-20T01:48:16;13.30;;;3.53;;
9188;SDS011;34313;50.780;6.084;2023-12-20T01:50:43;17.57;;;3.70;;
9188;SDS011;34313;50.780;6.084;2023-12-20T01:53:10;11.13;;;3.83;;
9188;SDS011;34313;50.780;6.084;2023-12-20T01:55:39;8.13;;;3.30;;
9188;SDS011;34313;50.780;6.084;2023-12-20T01:58:08;19.23;;;3.37;;
9188;SDS011;34313;50.780;6.084;2023-12-20T02:00:35;14.47;;;3.90;;
9188;SDS011;34313;50.780;6.084;2023-12-20T02:03:02;13.00;;;3.60;;
9188;SDS011;34313;50.780;6.084;2023-12-20T02:05:28;15.17;;;2.80;;
9188;SDS011;34313;50.780;6.084;2023-12-20T02:07:55;8.13;;;3.20;;
9188;SDS011;34313;50.780;6.084;2023-12-20T02:10:20;14.60;;;2.57;;
9188;SDS011;34313;50.780;6.084;2023-12-20T02:12:46;6.63;;;2.40;;
9188;SDS011;34313;50.780;6.084;2023-12-20T02:15:11;8.30;;;2.50;;
9188;SDS011;34313;50.780;6.084;2023-12-20T02:17:36;13.93;;;3.23;;
9188;SDS011;34313;50.780;6.084;2023-12-20T02:20:03;6.73;;;2.37;;
9188;SDS011;34313;50.780;6.084;2023-12-20T02:22:30;10.57;;;2.80;;
9188;SDS011;34313;50.780;6.084;2023-12-20T02:24:56;16.90;;;3.23;;
9188;SDS011;34313;50.780;6.084;2023-12-20T02:27:21;13.07;;;2.33;;
9188;SDS011;34313;50.780;6.084;2023-12-20T02:29:47;18.60;;;3.67;;
9188;SDS011;34313;50.780;6.084;2023-12-20T02:32:13;10.90;;;3.63;;
9188;SDS011;34313;50.780;6.084;2023-12-20T02:34:38;8.00;;;4.03;;
9188;SDS011;34313;50.780;6.084;2023-12-20T02:37:04;10.30;;;3.70;;
9188;SDS011;34313;50.780;6.084;2023-12-20T02:39:29;8.70;;;3.50;;
9188;SDS011;34313;50.780;6.084;2023-12-20T02:41:55;18.63;;;4.50;;
9188;SDS011;34313;50.780;6.084;2023-12-20T02:44:20;9.40;;;3.40;;
9188;SDS011;34313;50.780;6.084;2023-12-20T02:46:45;19.97;;;4.30;;
9188;SDS011;34313;50.780;6.084;2023-12-20T02:49:11;18.17;;;4.30;;
9188;SDS011;34313;50.780;6.084;2023-12-20T02:51:36;17.87;;;3.33;;
9188;SDS011;34313;50.780;6.084;2023-12-20T02:54:03;10.53;;;3.33;;
9188;SDS011;34313;50.780;6.084;2023-12-20T02:56:29;12.13;;;3.40;;
9188;SDS011;34313;50.780;6.084;2023-12-20T02:58:54;13.53;;;3.00;;
9188;SDS011;34313;50.780;6.084;2023-12-20T03:01:20;10.17;;;2.70;;
9188;SDS011;34313;50.780;6.084;2023-12-20T03:03:45;18.67;;;3.73;;
9188;SDS011;34313;50.780;6.084;2023-12-20T03:06:10;18.37;;;3.90;;
9188;SDS011;34313;50.780;6.084;2023-12-20T03:08:36;17.37;;;4.23;;
9188;SDS011;34313;50.780;6.084;2023-12-20T03:11:01;13.03;;;4.07;;
9188;SDS011;34313;50.780;6.084;2023-12-20T03:13:26;13.63;;;3.70;;
9188;SDS011;34313;50.780;6.084;2023-12-20T03:15:52;15.03;;;3.90;;
9188;SDS011;34313;50.780;6.084;2023-12-20T03:18:17;11.27;;;4.40;;
9188;SDS011;34313;50.780;6.084;2023-12-20T03:20:43;21.20;;;4.53;;
9188;SDS011;34313;50.780;6.084;2023-12-20T03:23:08;23.37;;;4.33;;
9188;SDS011;34313;50.780;6.084;2023-12-20T03:25:34;19.63;;;4.57;;
9188;SDS011;34313;50.780;6.084;2023-12-20T03:27:59;18.93;;;4.57;;
9188;SDS011;34313;50.780;6.084;2023-12-20T03:30:25;16.83;;;4.73;;
9188;SDS011;34313;50.780;6.084;2023-12-20T03:32:50;12.30;;;4.67;;
9188;SDS011;34313;50.780;6.084;2023-12-20T03:35:16;15.00;;;5.57;;
9188;SDS011;34313;50.780;6.084;2023-12-20T03:37:42;17.53;;;5.40;;
9188;SDS011;34313;50.780;6.084;2023-12-20T03:40:07;16.23;;;5.33;;
9188;SDS011;34313;50.780;6.084;2023-12-20T03:42:32;17.60;;;5.40;;
9188;SDS011;34313;50.780;6.084;2023-12-20T03:44:58;18.30;;;5.60;;
9188;SDS011;34313;50.780;6.084;2023-12-20T03:47:23;9.83;;;5.33;;
9188;SDS011;34313;50.780;6.084;2023-12-20T03:49:48;13.07;;;5.30;;
9188;SDS011;34313;50.780;6.084;2023-12-20T03:52:14;12.50;;;4.77;;
9188;SDS011;34313;50.780;6.084;2023-12-20T03:54:39;20.03;;;5.00;;
9188;SDS011;34313;50.780;6.084;2023-12-20T03:57:07;22.37;;;5.80;;
9188;SDS011;34313;50.780;6.084;2023-12-20T03:59:36;15.93;;;5.10;;
9188;SDS011;34313;50.780;6.084;2023-12-20T04:02:02;15.20;;;5.00;;
9188;SDS011;34313;50.780;6.084;2023-12-20T04:04:28;16.83;;;4.60;;
9188;SDS011;34313;50.780;6.084;2023-12-20T04:06:53;14.27;;;5.17;;
9188;SDS011;34313;50.780;6.084;2023-12-20T04:09:18;16.10;;;4.43;;
9188;SDS011;34313;50.780;6.084;2023-12-20T04:11:44;18.60;;;4.83;;
9188;SDS011;34313;50.780;6.084;2023-12-20T04:14:09;9.63;;;4.70;;
9188;SDS011;34313;50.780;6.084;2023-12-20T04:16:35;15.50;;;5.03;;
9188;SDS011;34313;50.780;6.084;2023-12-20T04:19:00;22.20;;;5.40;;
9188;SDS011;34313;50.780;6.084;2023-12-20T04:21:26;15.73;;;4.50;;
9188;SDS011;34313;50.780;6.084;2023-12-20T04:23:51;13.00;;;4.30;;
9188;SDS011;34313;50.780;6.084;2023-12-20T04:26:16;12.87;;;3.83;;
9188;SDS011;34313;50.780;6.084;2023-12-20T04:28:42;10.30;;;3.93;;
9188;SDS011;34313;50.780;6.084;2023-12-20T04:31:07;10.60;;;3.83;;
9188;SDS011;34313;50.780;6.084;2023-12-20T04:33:33;13.67;;;3.37;;
9188;SDS011;34313;50.780;6.084;2023-12-20T04:35:58;11.10;;;4.10;;
9188;SDS011;34313;50.780;6.084;2023-12-20T04:38:23;14.00;;;4.70;;
9188;SDS011;34313;50.780;6.084;2023-12-20T04:40:49;20.13;;;4.57;;
9188;SDS011;34313;50.780;6.084;2023-12-20T04:43:14;8.90;;;3.43;;
9188;SDS011;34313;50.780;6.084;2023-12-20T04:45:39;10.60;;;4.03;;
9188;SDS011;34313;50.780;6.084;2023-12-20T04:48:05;18.50;;;3.83;;
9188;SDS011;34313;50.780;6.084;2023-12-20T04:50:30;15.57;;;4.30;;
9188;SDS011;34313;50.780;6.084;2023-12-20T04:52:56;16.57;;;3.80;;
9188;SDS011;34313;50.780;6.084;2023-12-20T04:55:21;10.57;;;3.97;;
9188;SDS011;34313;50.780;6.084;2023-12-20T04:57:47;19.93;;;4.17;;
9188;SDS011;34313;50.780;6.084;2023-12-20T05:00:12;11.70;;;3.97;;
9188;SDS011;34313;50.780;6.084;2023-12-20T05:02:40;22.50;;;4.87;;
9188;SDS011;34313;50.780;6.084;2023-12-20T05:05:05;14.27;;;3.93;;
9188;SDS011;34313;50.780;6.084;2023-12-20T05:07:31;22.57;;;4.83;;
9188;SDS011;34313;50.780;6.084;2023-12-20T05:09:56;22.10;;;4.17;;
9188;SDS011;34313;50.780;6.084;2023-12-20T05:12:21;14.90;;;4.17;;
9188;SDS011;34313;50.780;6.084;2023-12-20T05:14:47;17.17;;;4.40;;
9188;SDS011;34313;50.780;6.084;2023-12-20T05:17:12;16.93;;;4.37;;
9188;SDS011;34313;50.780;6.084;2023-12-20T05:19:37;13.63;;;3.80;;
9188;SDS011;34313;50.780;6.084;2023-12-20T05:22:03;19.90;;;4.00;;
9188;SDS011;34313;50.780;6.084;2023-12-20T05:24:28;19.23;;;4.30;;
9188;SDS011;34313;50.780;6.084;2023-12-20T05:26:54;16.63;;;4.67;;
9188;SDS011;34313;50.780;6.084;2023-12-20T05:29:19;15.43;;;4.50;;
9188;SDS011;34313;50.780;6.084;2023-12-20T05:31:45;15.70;;;4.33;;
9188;SDS011;34313;50.780;6.084;2023-12-20T05:34:10;13.33;;;4.43;;
9188;SDS011;34313;50.780;6.084;2023-12-20T05:36:36;17.50;;;4.60;;
9188;SDS011;34313;50.780;6.084;2023-12-20T05:39:01;14.80;;;4.43;;
9188;SDS011;34313;50.780;6.084;2023-12-20T05:41:28;13.80;;;4.50;;
9188;SDS011;34313;50.780;6.084;2023-12-20T05:43:54;18.87;;;4.47;;
9188;SDS011;34313;50.780;6.084;2023-12-20T05:46:19;13.17;;;3.90;;
9188;SDS011;34313;50.780;6.084;2023-12-20T05:48:44;11.87;;;4.30;;
9188;SDS011;34313;50.780;6.084;2023-12-20T05:51:12;13.30;;;4.47;;
9188;SDS011;34313;50.780;6.084;2023-12-20T05:53:38;16.50;;;4.60;;
9188;SDS011;34313;50.780;6.084;2023-12-20T05:56:04;13.03;;;5.00;;
9188;SDS011;34313;50.780;6.084;2023-12-20T05:58:29;14.93;;;5.23;;
9188;SDS011;34313;50.780;6.084;2023-12-20T06:00:54;16.77;;;4.90;;
9188;SDS011;34313;50.780;6.084;2023-12-20T06:03:20;15.53;;;4.73;;
9188;SDS011;34313;50.780;6.084;2023-12-20T06:05:45;15.50;;;4.97;;
9188;SDS011;34313;50.780;6.084;2023-12-20T06:08:10;12.17;;;4.83;;
9188;SDS011;34313;50.780;6.084;2023-12-20T06:10:36;14.67;;;4.70;;
9188;SDS011;34313;50.780;6.084;2023-12-20T06:13:01;16.77;;;4.97;;
9188;SDS011;34313;50.780;6.084;2023-12-20T06:15:26;23.23;;;4.43;;
9188;SDS011;34313;50.780;6.084;2023-12-20T06:17:52;13.67;;;4.17;;
9188;SDS011;34313;50.780;6.084;2023-12-20T06:20:17;18.53;;;4.33;;
9188;SDS011;34313;50.780;6.084;2023-12-20T06:22:42;9.73;;;4.00;;
9188;SDS011;34313;50.780;6.084;2023-12-20T06:25:08;14.43;;;4.37;;
9188;SDS011;34313;50.780;6.084;2023-12-20T06:27:34;19.47;;;4.90;;
9188;SDS011;34313;50.780;6.084;2023-12-20T06:29:59;13.73;;;4.00;;
9188;SDS011;34313;50.780;6.084;2023-12-20T06:32:24;14.57;;;4.00;;
9188;SDS011;34313;50.780;6.084;2023-12-20T06:34:50;16.47;;;4.50;;
9188;SDS011;34313;50.780;6.084;2023-12-20T06:37:15;29.03;;;5.07;;
9188;SDS011;34313;50.780;6.084;2023-12-20T06:39:40;18.07;;;4.87;;
9188;SDS011;34313;50.780;6.084;2023-12-20T06:42:06;11.30;;;4.03;;
9188;SDS011;34313;50.780;6.084;2023-12-20T06:44:31;19.53;;;3.70;;
9188;SDS011;34313;50.780;6.084;2023-12-20T06:46:57;18.07;;;4.67;;
9188;SDS011;34313;50.780;6.084;2023-12-20T06:49:22;14.47;;;5.07;;
9188;SDS011;34313;50.780;6.084;2023-12-20T06:51:48;18.30;;;5.20;;
9188;SDS011;34313;50.780;6.084;2023-12-20T06:54:13;11.03;;;4.40;;
9188;SDS011;34313;50.780;6.084;2023-12-20T06:56:38;17.33;;;5.07;;
9188;SDS011;34313;50.780;6.084;2023-12-20T06:59:04;10.13;;;4.23;;
9188;SDS011;34313;50.780;6.084;2023-12-20T07:01:29;16.67;;;4.93;;
9188;SDS011;34313;50.780;6.084;2023-12-20T07:03:54;10.00;;;4.40;;
9188;SDS011;34313;50.780;6.084;2023-12-20T07:06:19;32.87;;;5.43;;
9188;SDS011;34313;50.780;6.084;2023-12-20T07:08:45;16.60;;;4.80;;
9188;SDS011;34313;50.780;6.084;2023-12-20T07:11:11;16.53;;;5.50;;
9188;SDS011;34313;50.780;6.084;2023-12-20T07:13:36;16.67;;;5.37;;
9188;SDS011;34313;50.780;6.084;2023-12-20T07:16:02;14.67;;;4.63;;
9188;SDS011;34313;50.780;6.084;2023-12-20T07:18:27;12.17;;;4.83;;
9188;SDS011;34313;50.780;6.084;2023-12-20T07:20:53;20.30;;;5.50;;
9188;SDS011;34313;50.780;6.084;2023-12-20T07:23:19;14.37;;;5.80;;
9188;SDS011;34313;50.780;6.084;2023-12-20T07:25:45;17.13;;;4.90;;
9188;SDS011;34313;50.780;6.084;2023-12-20T07:28:10;17.30;;;5.13;;
9188;SDS011;34313;50.780;6.084;2023-12-20T07:30:36;17.03;;;5.20;;
9188;SDS011;34313;50.780;6.084;2023-12-20T07:33:01;18.50;;;6.07;;
9188;SDS011;34313;50.780;6.084;2023-12-20T07:35:27;31.53;;;5.27;;
9188;SDS011;34313;50.780;6.084;2023-12-20T07:37:52;19.30;;;6.00;;
9188;SDS011;34313;50.780;6.084;2023-12-20T07:40:18;14.17;;;5.47;;
9188;SDS011;34313;50.780;6.084;2023-12-20T07:42:43;16.47;;;5.70;;
9188;SDS011;34313;50.780;6.084;2023-12-20T07:45:09;15.07;;;5.67;;
9188;SDS011;34313;50.780;6.084;2023-12-20T07:47:35;18.33;;;5.97;;
9188;SDS011;34313;50.780;6.084;2023-12-20T07:50:01;14.87;;;5.23;;
9188;SDS011;34313;50.780;6.084;2023-12-20T07:52:29;18.50;;;5.50;;
9188;SDS011;34313;50.780;6.084;2023-12-20T07:54:54;11.60;;;4.80;;
9188;SDS011;34313;50.780;6.084;2023-12-20T07:57:20;19.63;;;6.47;;
9188;SDS011;34313;50.780;6.084;2023-12-20T07:59:46;13.23;;;4.80;;
9188;SDS011;34313;50.780;6.084;2023-12-20T08:02:11;22.27;;;5.83;;
9188;SDS011;34313;50.780;6.084;2023-12-20T08:04:36;31.43;;;6.23;;
9188;SDS011;34313;50.780;6.084;2023-12-20T08:07:02;15.93;;;5.03;;
9188;SDS011;34313;50.780;6.084;2023-12-20T08:09:28;22.17;;;5.93;;
9188;SDS011;34313;50.780;6.084;2023-12-20T08:11:54;12.57;;;5.37;;
9188;SDS011;34313;50.780;6.084;2023-12-20T08:14:19;19.00;;;5.53;;
9188;SDS011;34313;50.780;6.084;2023-12-20T08:16:44;15.60;;;5.50;;
9188;SDS011;34313;50.780;6.084;2023-12-20T08:19:09;18.07;;;5.07;;
9188;SDS011;34313;50.780;6.084;2023-12-20T08:21:35;12.20;;;5.33;;
9188;SDS011;34313;50.780;6.084;2023-12-20T08:24:00;18.80;;;5.37;;
9188;SDS011;34313;50.780;6.084;2023-12-20T08:26:25;16.77;;;4.90;;
9188;SDS011;34313;50.780;6.084;2023-12-20T08:28:51;16.23;;;5.33;;
9188;SDS011;34313;50.780;6.084;2023-12-20T08:31:16;16.80;;;5.30;;
9188;SDS011;34313;50.780;6.084;2023-12-20T08:33:46;14.50;;;5.00;;
9188;SDS011;34313;50.780;6.084;2023-12-20T08:36:13;11.10;;;4.77;;
9188;SDS011;34313;50.780;6.084;2023-12-20T08:38:38;16.83;;;5.50;;
9188;SDS011;34313;50.780;6.084;2023-12-20T08:41:04;12.63;;;5.00;;
9188;SDS011;34313;50.780;6.084;2023-12-20T08:43:30;12.77;;;4.43;;
9188;SDS011;34313;50.780;6.084;2023-12-20T08:45:56;13.73;;;4.43;;
9188;SDS011;34313;50.780;6.084;2023-12-20T08:48:21;13.20;;;4.10;;
9188;SDS011;34313;50.780;6.084;2023-12-20T08:50:47;14.77;;;4.80;;
9188;SDS011;34313;50.780;6.084;2023-12-20T08:53:13;16.87;;;4.93;;
9188;SDS011;34313;50.780;6.084;2023-12-20T08:55:40;12.17;;;4.40;;
9188;SDS011;34313;50.780;6.084;2023-12-20T08:58:06;14.93;;;4.37;;
9188;SDS011;34313;50.780;6.084;2023-12-20T09:00:33;18.03;;;4.13;;
9188;SDS011;34313;50.780;6.084;2023-12-20T09:02:58;12.23;;;3.97;;
9188;SDS011;34313;50.780;6.084;2023-12-20T09:05:24;15.10;;;3.73;;
9188;SDS011;34313;50.780;6.084;2023-12-20T09:07:49;13.23;;;3.70;;
9188;SDS011;34313;50.780;6.084;2023-12-20T09:10:15;19.30;;;3.50;;
9188;SDS011;34313;50.780;6.084;2023-12-20T09:12:40;13.80;;;4.30;;
9188;SDS011;34313;50.780;6.084;2023-12-20T09:15:07;16.00;;;3.90;;
9188;SDS011;34313;50.780;6.084;2023-12-20T09:17:33;10.83;;;3.53;;
9188;SDS011;34313;50.780;6.084;2023-12-20T09:19:59;13.07;;;3.70;;
9188;SDS011;34313;50.780;6.084;2023-12-20T09:22:25;17.30;;;3.80;;
9188;SDS011;34313;50.780;6.084;2023-12-20T09:24:50;15.20;;;4.03;;
9188;SDS011;34313;50.780;6.084;2023-12-20T09:27:16;12.60;;;3.97;;
9188;SDS011;34313;50.780;6.084;2023-12-20T09:29:41;11.90;;;3.27;;
9188;SDS011;34313;50.780;6.084;2023-12-20T09:32:06;18.63;;;3.00;;
9188;SDS011;34313;50.780;6.084;2023-12-20T09:34:32;19.00;;;3.30;;
9188;SDS011;34313;50.780;6.084;2023-12-20T09:36:58;16.33;;;3.00;;
9188;SDS011;34313;50.780;6.084;2023-12-20T09:39:23;10.70;;;3.50;;
9188;SDS011;34313;50.780;6.084;2023-12-20T09:42:04;17.43;;;3.70;;
9188;SDS011;34313;50.780;6.084;2023-12-20T09:44:31;15.17;;;3.67;;
9188;SDS011;34313;50.780;6.084;2023-12-20T09:46:58;18.57;;;3.77;;
9188;SDS011;34313;50.780;6.084;2023-12-20T09:49:27;14.60;;;3.33;;
9188;SDS011;34313;50.780;6.084;2023-12-20T09:51:53;14.50;;;3.03;;
9188;SDS011;34313;50.780;6.084;2023-12-20T09:54:19;10.63;;;3.87;;
9188;SDS011;34313;50.780;6.084;2023-12-20T09:56:46;10.97;;;2.87;;
9188;SDS011;34313;50.780;6.084;2023-12-20T09:59:11;10.03;;;2.67;;
9188;SDS011;34313;50.780;6.084;2023-12-20T10:01:38;11.10;;;3.87;;
9188;SDS011;34313;50.780;6.084;2023-12-20T10:04:05;18.30;;;3.53;;
9188;SDS011;34313;50.780;6.084;2023-12-20T10:06:40;16.43;;;3.30;;
9188;SDS011;34313;50.780;6.084;2023-12-20T10:09:07;13.93;;;3.03;;
9188;SDS011;34313;50.780;6.084;2023-12-20T10:11:34;18.40;;;2.60;;
9188;SDS011;34313;50.780;6.084;2023-12-20T10:14:02;11.93;;;2.77;;
9188;SDS011;34313;50.780;6.084;2023-12-20T10:16:28;11.37;;;2.63;;
9188;SDS011;34313;50.780;6.084;2023-12-20T10:18:53;11.33;;;2.93;;
9188;SDS011;34313;50.780;6.084;2023-12-20T10:21:19;14.63;;;2.77;;
9188;SDS011;34313;50.780;6.084;2023-12-20T10:23:45;10.83;;;3.00;;
9188;SDS011;34313;50.780;6.084;2023-12-20T10:26:10;8.90;;;3.00;;
9188;SDS011;34313;50.780;6.084;2023-12-20T10:28:44;13.83;;;2.67;;
9188;SDS011;34313;50.780;6.084;2023-12-20T10:31:09;15.43;;;3.30;;
9188;SDS011;34313;50.780;6.084;2023-12-20T10:33:35;9.80;;;3.00;;
9188;SDS011;34313;50.780;6.084;2023-12-20T10:36:00;16.80;;;3.07;;
9188;SDS011;34313;50.780;6.084;2023-12-20T10:38:25;15.40;;;3.63;;
9188;SDS011;34313;50.780;6.084;2023-12-20T10:40:54;17.80;;;3.47;;
9188;SDS011;34313;50.780;6.084;2023-12-20T10:43:24;9.67;;;3.57;;
9188;SDS011;34313;50.780;6.084;2023-12-20T10:45:51;16.93;;;3.60;;
9188;SDS011;34313;50.780;6.084;2023-12-20T10:48:17;12.57;;;2.80;;
9188;SDS011;34313;50.780;6.084;2023-12-20T10:50:43;7.43;;;2.80;;
9188;SDS011;34313;50.780;6.084;2023-12-20T10:53:10;11.67;;;3.13;;
9188;SDS011;34313;50.780;6.084;2023-12-20T10:55:37;13.23;;;3.40;;
9188;SDS011;34313;50.780;6.084;2023-12-20T10:58:08;14.70;;;2.53;;
9188;SDS011;34313;50.780;6.084;2023-12-20T11:00:43;15.93;;;3.17;;
9188;SDS011;34313;50.780;6.084;2023-12-20T11:03:11;8.97;;;2.70;;
9188;SDS011;34313;50.780;6.084;2023-12-20T11:05:49;11.17;;;3.20;;
9188;SDS011;34313;50.780;6.084;2023-12-20T11:10:59;12.57;;;3.40;;
9188;SDS011;34313;50.780;6.084;2023-12-20T11:13:32;13.20;;;3.10;;
9188;SDS011;34313;50.780;6.084;2023-12-20T11:16:03;11.63;;;2.93;;
9188;SDS011;34313;50.780;6.084;2023-12-20T11:18:29;9.53;;;3.00;;
9188;SDS011;34313;50.780;6.084;2023-12-20T11:21:01;14.07;;;3.37;;
9188;SDS011;34313;50.780;6.084;2023-12-20T11:23:29;10.03;;;3.17;;
9188;SDS011;34313;50.780;6.084;2023-12-20T11:25:56;17.90;;;3.63;;
9188;SDS011;34313;50.780;6.084;2023-12-20T11:28:25;16.23;;;3.90;;
9188;SDS011;34313;50.780;6.084;2023-12-20T11:30:52;6.53;;;2.87;;
9188;SDS011;34313;50.780;6.084;2023-12-20T11:33:22;10.30;;;2.83;;
9188;SDS011;34313;50.780;6.084;2023-12-20T11:35:48;11.27;;;3.00;;
9188;SDS011;34313;50.780;6.084;2023-12-20T11:38:14;10.43;;;3.10;;
9188;SDS011;34313;50.780;6.084;2023-12-20T11:40:41;17.87;;;3.10;;
9188;SDS011;34313;50.780;6.084;2023-12-20T11:43:07;13.23;;;2.83;;
9188;SDS011;34313;50.780;6.084;2023-12-20T11:45:32;13.73;;;3.23;;
9188;SDS011;34313;50.780;6.084;2023-12-20T11:47:59;12.10;;;3.23;;
9188;SDS011;34313;50.780;6.084;2023-12-20T11:50:27;13.63;;;3.20;;
9188;SDS011;34313;50.780;6.084;2023-12-20T11:52:53;15.13;;;3.10;;
9188;SDS011;34313;50.780;6.084;2023-12-20T11:55:20;20.97;;;3.37;;
9188;SDS011;34313;50.780;6.084;2023-12-20T11:57:45;16.13;;;4.40;;
9188;SDS011;34313;50.780;6.084;2023-12-20T12:00:11;10.10;;;2.97;;
9188;SDS011;34313;50.780;6.084;2023-12-20T12:02:39;13.70;;;3.53;;
9188;SDS011;34313;50.780;6.084;2023-12-20T12:05:04;11.20;;;3.23;;
9188;SDS011;34313;50.780;6.084;2023-12-20T12:07:30;11.23;;;3.17;;
9188;SDS011;34313;50.780;6.084;2023-12-20T12:09:56;10.90;;;3.33;;
9188;SDS011;34313;50.780;6.084;2023-12-20T12:12:22;15.00;;;3.60;;
9188;SDS011;34313;50.780;6.084;2023-12-20T12:14:48;11.63;;;2.90;;
9188;SDS011;34313;50.780;6.084;2023-12-20T12:17:14;8.47;;;2.90;;
9188;SDS011;34313;50.780;6.084;2023-12-20T12:19:40;6.13;;;3.40;;
9188;SDS011;34313;50.780;6.084;2023-12-20T12:24:41;12.87;;;3.53;;
9188;SDS011;34313;50.780;6.084;2023-12-20T12:27:09;12.20;;;3.03;;
9188;SDS011;34313;50.780;6.084;2023-12-20T12:29:35;14.87;;;3.40;;
9188;SDS011;34313;50.780;6.084;2023-12-20T12:32:04;14.53;;;2.90;;
9188;SDS011;34313;50.780;6.084;2023-12-20T12:34:30;14.57;;;2.90;;
9188;SDS011;34313;50.780;6.084;2023-12-20T12:36:56;9.83;;;2.83;;
9188;SDS011;34313;50.780;6.084;2023-12-20T12:39:22;15.07;;;2.90;;
9188;SDS011;34313;50.780;6.084;2023-12-20T12:41:49;15.40;;;3.20;;
9188;SDS011;34313;50.780;6.084;2023-12-20T12:44:15;14.97;;;4.03;;
9188;SDS011;34313;50.780;6.084;2023-12-20T12:46:40;9.83;;;3.13;;
9188;SDS011;34313;50.780;6.084;2023-12-20T12:49:06;9.17;;;2.73;;
9188;SDS011;34313;50.780;6.084;2023-12-20T12:51:31;19.40;;;3.60;;
9188;SDS011;34313;50.780;6.084;2023-12-20T12:53:57;20.67;;;3.47;;
9188;SDS011;34313;50.780;6.084;2023-12-20T12:56:22;12.87;;;3.10;;
9188;SDS011;34313;50.780;6.084;2023-12-20T12:58:48;18.10;;;3.73;;
9188;SDS011;34313;50.780;6.084;2023-12-20T13:01:13;8.83;;;2.73;;
9188;SDS011;34313;50.780;6.084;2023-12-20T13:03:39;21.07;;;3.60;;
9188;SDS011;34313;50.780;6.084;2023-12-20T13:06:04;10.17;;;3.30;;
9188;SDS011;34313;50.780;6.084;2023-12-20T13:08:31;10.37;;;3.50;;
9188;SDS011;34313;50.780;6.084;2023-12-20T13:10:57;13.40;;;3.83;;
9188;SDS011;34313;50.780;6.084;2023-12-20T13:13:25;10.17;;;4.00;;
9188;SDS011;34313;50.780;6.084;2023-12-20T13:15:54;25.03;;;4.63;;
9188;SDS011;34313;50.780;6.084;2023-12-20T13:18:20;16.17;;;4.23;;
9188;SDS011;34313;50.780;6.084;2023-12-20T13:20:46;6.77;;;3.00;;
9188;SDS011;34313;50.780;6.084;2023-12-20T13:23:12;13.03;;;3.03;;
9188;SDS011;34313;50.780;6.084;2023-12-20T13:25:37;18.23;;;3.70;;
9188;SDS011;34313;50.780;6.084;2023-12-20T13:28:03;15.40;;;4.10;;
9188;SDS011;34313;50.780;6.084;2023-12-20T13:30:28;15.40;;;3.80;;
9188;SDS011;34313;50.780;6.084;2023-12-20T13:32:54;10.90;;;3.83;;
9188;SDS011;34313;50.780;6.084;2023-12-20T13:35:20;11.70;;;4.10;;
9188;SDS011;34313;50.780;6.084;2023-12-20T13:37:45;14.57;;;3.40;;
9188;SDS011;34313;50.780;6.084;2023-12-20T13:40:11;16.80;;;3.33;;
9188;SDS011;34313;50.780;6.084;2023-12-20T13:42:37;11.50;;;4.00;;
9188;SDS011;34313;50.780;6.084;2023-12-20T13:45:03;13.70;;;4.00;;
9188;SDS011;34313;50.780;6.084;2023-12-20T13:47:29;13.17;;;4.13;;
9188;SDS011;34313;50.780;6.084;2023-12-20T13:49:55;12.40;;;3.77;;
9188;SDS011;34313;50.780;6.084;2023-12-20T13:52:21;13.93;;;4.53;;
9188;SDS011;34313;50.780;6.084;2023-12-20T13:54:46;11.97;;;3.77;;
9188;SDS011;34313;50.780;6.084;2023-12-20T13:57:12;17.37;;;4.03;;
9188;SDS011;34313;50.780;6.084;2023-12-20T13:59:37;15.50;;;3.73;;
9188;SDS011;34313;50.780;6.084;2023-12-20T14:02:02;15.10;;;4.37;;
9188;SDS011;34313;50.780;6.084;2023-12-20T14:04:28;18.87;;;4.00;;
9188;SDS011;34313;50.780;6.084;2023-12-20T14:06:53;12.80;;;4.17;;
9188;SDS011;34313;50.780;6.084;2023-12-20T14:09:19;18.83;;;3.73;;
9188;SDS011;34313;50.780;6.084;2023-12-20T14:11:44;14.00;;;4.17;;
9188;SDS011;34313;50.780;6.084;2023-12-20T14:14:11;17.10;;;4.07;;
9188;SDS011;34313;50.780;6.084;2023-12-20T14:16:36;9.23;;;3.43;;
9188;SDS011;34313;50.780;6.084;2023-12-20T14:19:01;16.23;;;4.30;;
9188;SDS011;34313;50.780;6.084;2023-12-20T14:21:28;18.10;;;4.13;;
9188;SDS011;34313;50.780;6.084;2023-12-20T14:23:53;20.33;;;4.70;;
9188;SDS011;34313;50.780;6.084;2023-12-20T14:26:19;13.30;;;3.40;;
9188;SDS011;34313;50.780;6.084;2023-12-20T14:28:44;10.23;;;4.20;;
9188;SDS011;34313;50.780;6.084;2023-12-20T14:31:09;19.57;;;3.50;;
9188;SDS011;34313;50.780;6.084;2023-12-20T14:33:35;9.80;;;3.53;;
9188;SDS011;34313;50.780;6.084;2023-12-20T14:36:03;13.33;;;3.70;;
9188;SDS011;34313;50.780;6.084;2023-12-20T14:38:30;12.77;;;3.83;;
9188;SDS011;34313;50.780;6.084;2023-12-20T14:40:56;9.97;;;3.97;;
9188;SDS011;34313;50.780;6.084;2023-12-20T14:43:22;10.03;;;3.33;;
9188;SDS011;34313;50.780;6.084;2023-12-20T14:45:47;10.90;;;3.50;;